sensor_id;sensor_type;location;lat;lon;timestamp;temperature;humidity
1107;DHT22;540;49.448;8.612;2023-07-13T00:01:17;22.80;52.10
1107;DHT22;540;49.448;8.612;2023-07-13T00:03:45;22.70;51.90
1107;DHT22;540;49.448;8.612;2023-07-13T00:06:13;22.70;51.70
1107;DHT22;540;49.448;8.612;2023-07-13T00:08:43;22.70;51.70
1107;DHT22;540;49.448;8.612;2023-07-13T00:11:11;22.70;51.80
1107;DHT22;540;49.448;8.612;2023-07-13T00:13:39;22.70;51.60
1107;DHT22;540;49.448;8.612;2023-07-13T00:16:07;22.70;51.50
1107;DHT22;540;49.448;8.612;2023-07-13T00:18:36;22.80;51.40
1107;DHT22;540;49.448;8.612;2023-07-13T00:21:04;22.80;51.30
1107;DHT22;540;49.448;8.612;2023-07-13T00:23:32;22.80;51.10
1107;DHT22;540;49.448;8.612;2023-07-13T00:26:04;22.90;51.10
1107;DHT22;540;49.448;8.612;2023-07-13T00:28:32;22.80;50.80
1107;DHT22;540;49.448;8.612;2023-07-13T00:31:00;22.80;51.00
1107;DHT22;540;49.448;8.612;2023-07-13T00:33:29;22.90;51.10
1107;DHT22;540;49.448;8.612;2023-07-13T00:35:57;22.80;51.10
1107;DHT22;540;49.448;8.612;2023-07-13T00:38:25;22.80;51.20
1107;DHT22;540;49.448;8.612;2023-07-13T00:40:53;22.70;51.20
1107;DHT22;540;49.448;8.612;2023-07-13T00:43:24;22.70;51.10
1107;DHT22;540;49.448;8.612;2023-07-13T00:46:21;22.70;51.50
1107;DHT22;540;49.448;8.612;2023-07-13T00:48:50;22.60;51.40
1107;DHT22;540;49.448;8.612;2023-07-13T00:51:23;22.50;51.60
1107;DHT22;540;49.448;8.612;2023-07-13T00:53:53;22.40;51.70
1107;DHT22;540;49.448;8.612;2023-07-13T00:56:21;22.40;51.90
1107;DHT22;540;49.448;8.612;2023-07-13T00:58:51;22.30;52.20
1107;DHT22;540;49.448;8.612;2023-07-13T01:01:19;22.20;52.30
1107;DHT22;540;49.448;8.612;2023-07-13T01:03:47;22.10;52.40
1107;DHT22;540;49.448;8.612;2023-07-13T01:06:15;22.00;52.60
1107;DHT22;540;49.448;8.612;2023-07-13T01:08:44;22.00;52.80
1107;DHT22;540;49.448;8.612;2023-07-13T01:11:12;22.00;53.00
1107;DHT22;540;49.448;8.612;2023-07-13T01:13:43;22.00;53.30
1107;DHT22;540;49.448;8.612;2023-07-13T01:16:17;21.90;54.90
1107;DHT22;540;49.448;8.612;2023-07-13T01:18:47;21.70;58.50
1107;DHT22;540;49.448;8.612;2023-07-13T01:21:16;21.60;59.90
1107;DHT22;540;49.448;8.612;2023-07-13T01:23:45;21.00;59.10
1107;DHT22;540;49.448;8.612;2023-07-13T01:26:13;21.40;60.00
1107;DHT22;540;49.448;8.612;2023-07-13T01:28:41;21.20;60.10
1107;DHT22;540;49.448;8.612;2023-07-13T01:31:09;21.20;60.70
1107;DHT22;540;49.448;8.612;2023-07-13T01:33:39;21.10;59.90
1107;DHT22;540;49.448;8.612;2023-07-13T01:36:08;20.90;60.60
1107;DHT22;540;49.448;8.612;2023-07-13T01:38:38;21.00;63.40
1107;DHT22;540;49.448;8.612;2023-07-13T01:41:10;21.10;62.80
1107;DHT22;540;49.448;8.612;2023-07-13T01:43:38;21.00;60.90
1107;DHT22;540;49.448;8.612;2023-07-13T01:46:05;21.00;60.70
1107;DHT22;540;49.448;8.612;2023-07-13T01:48:49;21.10;63.80
1107;DHT22;540;49.448;8.612;2023-07-13T01:51:18;20.70;66.20
1107;DHT22;540;49.448;8.612;2023-07-13T01:53:47;20.80;65.70
1107;DHT22;540;49.448;8.612;2023-07-13T01:56:16;20.90;64.50
1107;DHT22;540;49.448;8.612;2023-07-13T01:58:45;20.90;65.30
1107;DHT22;540;49.448;8.612;2023-07-13T02:01:13;20.80;64.20
1107;DHT22;540;49.448;8.612;2023-07-13T02:03:40;20.90;59.60
1107;DHT22;540;49.448;8.612;2023-07-13T02:06:08;20.90;59.00
1107;DHT22;540;49.448;8.612;2023-07-13T02:08:37;21.10;59.40
1107;DHT22;540;49.448;8.612;2023-07-13T02:11:06;20.90;58.80
1107;DHT22;540;49.448;8.612;2023-07-13T02:13:34;21.00;57.80
1107;DHT22;540;49.448;8.612;2023-07-13T02:16:02;21.20;57.20
1107;DHT22;540;49.448;8.612;2023-07-13T02:18:30;21.00;56.90
1107;DHT22;540;49.448;8.612;2023-07-13T02:20:58;21.00;56.70
1107;DHT22;540;49.448;8.612;2023-07-13T02:23:26;21.10;56.30
1107;DHT22;540;49.448;8.612;2023-07-13T02:25:55;21.00;57.60
1107;DHT22;540;49.448;8.612;2023-07-13T02:28:24;20.80;59.40
1107;DHT22;540;49.448;8.612;2023-07-13T02:30:52;20.60;60.70
1107;DHT22;540;49.448;8.612;2023-07-13T02:33:20;20.40;61.10
1107;DHT22;540;49.448;8.612;2023-07-13T02:35:48;19.90;61.90
1107;DHT22;540;49.448;8.612;2023-07-13T02:38:15;20.20;63.90
1107;DHT22;540;49.448;8.612;2023-07-13T02:40:43;20.20;64.30
1107;DHT22;540;49.448;8.612;2023-07-13T02:43:11;20.20;64.10
1107;DHT22;540;49.448;8.612;2023-07-13T02:45:45;20.10;63.90
1107;DHT22;540;49.448;8.612;2023-07-13T02:48:13;20.00;64.60
1107;DHT22;540;49.448;8.612;2023-07-13T02:50:41;20.00;64.00
1107;DHT22;540;49.448;8.612;2023-07-13T02:53:09;19.90;64.20
1107;DHT22;540;49.448;8.612;2023-07-13T02:55:37;19.50;65.00
1107;DHT22;540;49.448;8.612;2023-07-13T02:58:05;19.30;64.70
1107;DHT22;540;49.448;8.612;2023-07-13T03:00:33;19.80;66.00
1107;DHT22;540;49.448;8.612;2023-07-13T03:03:02;19.60;66.40
1107;DHT22;540;49.448;8.612;2023-07-13T03:05:30;19.80;66.30
1107;DHT22;540;49.448;8.612;2023-07-13T03:07:58;19.80;67.10
1107;DHT22;540;49.448;8.612;2023-07-13T03:10:25;19.80;66.60
1107;DHT22;540;49.448;8.612;2023-07-13T03:12:53;19.70;66.70
1107;DHT22;540;49.448;8.612;2023-07-13T03:15:21;19.70;67.30
1107;DHT22;540;49.448;8.612;2023-07-13T03:17:49;19.60;68.20
1107;DHT22;540;49.448;8.612;2023-07-13T03:20:18;19.40;68.40
1107;DHT22;540;49.448;8.612;2023-07-13T03:22:46;19.20;68.70
1107;DHT22;540;49.448;8.612;2023-07-13T03:25:14;19.50;69.90
1107;DHT22;540;49.448;8.612;2023-07-13T03:27:42;19.60;69.60
1107;DHT22;540;49.448;8.612;2023-07-13T03:30:10;19.00;68.30
1107;DHT22;540;49.448;8.612;2023-07-13T03:32:38;19.80;68.50
1107;DHT22;540;49.448;8.612;2023-07-13T03:35:07;19.50;68.20
1107;DHT22;540;49.448;8.612;2023-07-13T03:37:37;19.80;68.80
1107;DHT22;540;49.448;8.612;2023-07-13T03:40:09;19.50;67.70
1107;DHT22;540;49.448;8.612;2023-07-13T03:42:38;19.30;67.20
1107;DHT22;540;49.448;8.612;2023-07-13T03:45:07;19.20;68.20
1107;DHT22;540;49.448;8.612;2023-07-13T03:47:35;19.50;69.80
1107;DHT22;540;49.448;8.612;2023-07-13T03:50:03;19.70;70.80
1107;DHT22;540;49.448;8.612;2023-07-13T03:52:31;19.70;70.30
1107;DHT22;540;49.448;8.612;2023-07-13T03:55:00;19.70;70.00
1107;DHT22;540;49.448;8.612;2023-07-13T03:57:28;19.70;69.20
1107;DHT22;540;49.448;8.612;2023-07-13T03:59:57;19.50;71.00
1107;DHT22;540;49.448;8.612;2023-07-13T04:02:25;19.20;71.60
1107;DHT22;540;49.448;8.612;2023-07-13T04:04:53;19.50;70.10
1107;DHT22;540;49.448;8.612;2023-07-13T04:07:20;19.50;69.60
1107;DHT22;540;49.448;8.612;2023-07-13T04:09:48;19.40;70.20
1107;DHT22;540;49.448;8.612;2023-07-13T04:12:17;19.40;70.50
1107;DHT22;540;49.448;8.612;2023-07-13T04:14:45;19.60;70.30
1107;DHT22;540;49.448;8.612;2023-07-13T04:17:13;19.60;70.80
1107;DHT22;540;49.448;8.612;2023-07-13T04:19:41;19.20;71.00
1107;DHT22;540;49.448;8.612;2023-07-13T04:22:09;19.80;71.20
1107;DHT22;540;49.448;8.612;2023-07-13T04:24:36;19.60;70.30
1107;DHT22;540;49.448;8.612;2023-07-13T04:27:05;19.70;70.30
1107;DHT22;540;49.448;8.612;2023-07-13T04:29:34;19.60;69.50
1107;DHT22;540;49.448;8.612;2023-07-13T04:32:03;19.60;69.10
1107;DHT22;540;49.448;8.612;2023-07-13T04:34:31;19.40;67.90
1107;DHT22;540;49.448;8.612;2023-07-13T04:37:01;19.60;68.20
1107;DHT22;540;49.448;8.612;2023-07-13T04:39:29;19.60;69.90
1107;DHT22;540;49.448;8.612;2023-07-13T04:41:56;19.50;71.00
1107;DHT22;540;49.448;8.612;2023-07-13T04:44:24;19.30;69.70
1107;DHT22;540;49.448;8.612;2023-07-13T04:46:53;19.70;69.80
1107;DHT22;540;49.448;8.612;2023-07-13T04:49:21;19.40;69.20
1107;DHT22;540;49.448;8.612;2023-07-13T04:51:49;19.90;70.20
1107;DHT22;540;49.448;8.612;2023-07-13T04:54:17;20.00;69.30
1107;DHT22;540;49.448;8.612;2023-07-13T04:56:45;20.10;68.50
1107;DHT22;540;49.448;8.612;2023-07-13T04:59:12;20.30;68.40
1107;DHT22;540;49.448;8.612;2023-07-13T05:01:40;20.30;69.80
1107;DHT22;540;49.448;8.612;2023-07-13T05:04:09;20.30;69.40
1107;DHT22;540;49.448;8.612;2023-07-13T05:06:37;20.60;67.80
1107;DHT22;540;49.448;8.612;2023-07-13T05:09:05;20.50;67.90
1107;DHT22;540;49.448;8.612;2023-07-13T05:11:34;20.60;69.00
1107;DHT22;540;49.448;8.612;2023-07-13T05:14:02;20.70;71.00
1107;DHT22;540;49.448;8.612;2023-07-13T05:16:29;20.30;68.80
1107;DHT22;540;49.448;8.612;2023-07-13T05:18:58;20.80;67.40
1107;DHT22;540;49.448;8.612;2023-07-13T05:21:28;21.40;65.70
1107;DHT22;540;49.448;8.612;2023-07-13T05:23:56;21.70;63.70
1107;DHT22;540;49.448;8.612;2023-07-13T05:26:26;22.10;64.10
1107;DHT22;540;49.448;8.612;2023-07-13T05:28:53;22.60;63.10
1107;DHT22;540;49.448;8.612;2023-07-13T05:31:21;23.20;61.10
1107;DHT22;540;49.448;8.612;2023-07-13T05:33:49;23.50;59.80
1107;DHT22;540;49.448;8.612;2023-07-13T05:36:17;23.90;58.80
1107;DHT22;540;49.448;8.612;2023-07-13T05:38:46;24.70;56.50
1107;DHT22;540;49.448;8.612;2023-07-13T05:41:14;24.40;55.70
1107;DHT22;540;49.448;8.612;2023-07-13T05:43:42;24.00;56.90
1107;DHT22;540;49.448;8.612;2023-07-13T05:46:10;23.70;57.10
1107;DHT22;540;49.448;8.612;2023-07-13T05:48:38;24.60;55.00
1107;DHT22;540;49.448;8.612;2023-07-13T05:51:05;25.80;52.00
1107;DHT22;540;49.448;8.612;2023-07-13T05:53:34;26.90;47.60
1107;DHT22;540;49.448;8.612;2023-07-13T05:56:04;27.30;44.80
1107;DHT22;540;49.448;8.612;2023-07-13T05:58:32;27.40;44.60
1107;DHT22;540;49.448;8.612;2023-07-13T06:01:01;27.00;45.20
1107;DHT22;540;49.448;8.612;2023-07-13T06:03:30;25.80;47.30
1107;DHT22;540;49.448;8.612;2023-07-13T06:05:58;24.90;49.50
1107;DHT22;540;49.448;8.612;2023-07-13T06:08:27;24.40;50.80
1107;DHT22;540;49.448;8.612;2023-07-13T06:11:01;24.00;51.90
1107;DHT22;540;49.448;8.612;2023-07-13T06:13:31;23.90;52.60
1107;DHT22;540;49.448;8.612;2023-07-13T06:16:00;24.00;52.60
1107;DHT22;540;49.448;8.612;2023-07-13T06:18:30;24.10;52.60
1107;DHT22;540;49.448;8.612;2023-07-13T06:20:58;24.70;51.60
1107;DHT22;540;49.448;8.612;2023-07-13T06:23:26;25.00;51.30
1107;DHT22;540;49.448;8.612;2023-07-13T06:25:54;25.10;50.20
1107;DHT22;540;49.448;8.612;2023-07-13T06:28:23;25.40;49.40
1107;DHT22;540;49.448;8.612;2023-07-13T06:30:52;25.90;48.20
1107;DHT22;540;49.448;8.612;2023-07-13T06:33:20;27.50;45.20
1107;DHT22;540;49.448;8.612;2023-07-13T06:35:47;29.10;41.60
1107;DHT22;540;49.448;8.612;2023-07-13T06:38:15;30.50;38.70
1107;DHT22;540;49.448;8.612;2023-07-13T06:40:43;31.20;35.80
1107;DHT22;540;49.448;8.612;2023-07-13T06:43:11;31.40;34.30
1107;DHT22;540;49.448;8.612;2023-07-13T06:45:41;31.70;33.80
1107;DHT22;540;49.448;8.612;2023-07-13T06:48:11;32.20;32.30
1107;DHT22;540;49.448;8.612;2023-07-13T06:50:39;32.60;31.10
1107;DHT22;540;49.448;8.612;2023-07-13T06:53:06;32.40;30.90
1107;DHT22;540;49.448;8.612;2023-07-13T06:55:34;32.40;30.80
1107;DHT22;540;49.448;8.612;2023-07-13T06:58:02;32.50;29.80
1107;DHT22;540;49.448;8.612;2023-07-13T07:00:30;32.30;30.60
1107;DHT22;540;49.448;8.612;2023-07-13T07:02:58;32.90;30.10
1107;DHT22;540;49.448;8.612;2023-07-13T07:05:27;33.60;29.20
1107;DHT22;540;49.448;8.612;2023-07-13T07:07:55;34.00;27.80
1107;DHT22;540;49.448;8.612;2023-07-13T07:10:23;34.50;27.10
1107;DHT22;540;49.448;8.612;2023-07-13T07:12:51;34.70;25.90
1107;DHT22;540;49.448;8.612;2023-07-13T07:15:19;34.20;26.50
1107;DHT22;540;49.448;8.612;2023-07-13T07:17:47;34.30;26.50
1107;DHT22;540;49.448;8.612;2023-07-13T07:20:15;34.00;26.80
1107;DHT22;540;49.448;8.612;2023-07-13T07:22:44;33.90;27.10
1107;DHT22;540;49.448;8.612;2023-07-13T07:25:12;34.10;26.80
1107;DHT22;540;49.448;8.612;2023-07-13T07:27:40;34.80;26.30
1107;DHT22;540;49.448;8.612;2023-07-13T07:30:11;34.30;26.20
1107;DHT22;540;49.448;8.612;2023-07-13T07:32:42;33.80;26.80
1107;DHT22;540;49.448;8.612;2023-07-13T07:35:13;34.30;25.90
1107;DHT22;540;49.448;8.612;2023-07-13T07:37:40;35.20;25.70
1107;DHT22;540;49.448;8.612;2023-07-13T07:40:12;34.90;25.10
1107;DHT22;540;49.448;8.612;2023-07-13T07:42:43;35.10;25.30
1107;DHT22;540;49.448;8.612;2023-07-13T07:45:11;34.80;24.80
1107;DHT22;540;49.448;8.612;2023-07-13T07:47:40;34.50;24.90
1107;DHT22;540;49.448;8.612;2023-07-13T07:50:09;34.40;24.90
1107;DHT22;540;49.448;8.612;2023-07-13T07:52:37;34.60;25.30
1107;DHT22;540;49.448;8.612;2023-07-13T07:55:06;35.00;24.90
1107;DHT22;540;49.448;8.612;2023-07-13T07:57:39;35.20;24.90
1107;DHT22;540;49.448;8.612;2023-07-13T08:00:10;35.50;24.60
1107;DHT22;540;49.448;8.612;2023-07-13T08:02:43;35.30;24.60
1107;DHT22;540;49.448;8.612;2023-07-13T08:05:15;35.90;24.50
1107;DHT22;540;49.448;8.612;2023-07-13T08:07:47;36.50;24.00
1107;DHT22;540;49.448;8.612;2023-07-13T08:10:16;36.20;24.00
1107;DHT22;540;49.448;8.612;2023-07-13T08:12:46;35.50;24.20
1107;DHT22;540;49.448;8.612;2023-07-13T08:15:19;33.30;26.40
1107;DHT22;540;49.448;8.612;2023-07-13T08:17:48;32.90;27.20
1107;DHT22;540;49.448;8.612;2023-07-13T08:20:17;32.90;27.20
1107;DHT22;540;49.448;8.612;2023-07-13T08:22:47;33.30;26.80
1107;DHT22;540;49.448;8.612;2023-07-13T08:25:16;32.90;26.60
1107;DHT22;540;49.448;8.612;2023-07-13T08:27:46;32.80;27.20
1107;DHT22;540;49.448;8.612;2023-07-13T08:30:15;33.00;27.10
1107;DHT22;540;49.448;8.612;2023-07-13T08:32:44;32.90;27.10
1107;DHT22;540;49.448;8.612;2023-07-13T08:35:12;33.20;26.90
1107;DHT22;540;49.448;8.612;2023-07-13T08:37:40;33.80;26.20
1107;DHT22;540;49.448;8.612;2023-07-13T08:40:08;34.00;26.20
1107;DHT22;540;49.448;8.612;2023-07-13T08:42:39;34.80;25.90
1107;DHT22;540;49.448;8.612;2023-07-13T08:45:17;34.50;25.50
1107;DHT22;540;49.448;8.612;2023-07-13T08:47:51;34.50;25.80
1107;DHT22;540;49.448;8.612;2023-07-13T08:50:24;34.20;25.60
1107;DHT22;540;49.448;8.612;2023-07-13T08:52:55;33.90;26.00
1107;DHT22;540;49.448;8.612;2023-07-13T08:55:27;33.80;25.90
1107;DHT22;540;49.448;8.612;2023-07-13T08:58:01;33.70;26.30
1107;DHT22;540;49.448;8.612;2023-07-13T09:00:40;33.80;26.00
1107;DHT22;540;49.448;8.612;2023-07-13T09:03:18;33.40;26.40
1107;DHT22;540;49.448;8.612;2023-07-13T09:05:51;33.00;26.90
1107;DHT22;540;49.448;8.612;2023-07-13T09:08:33;32.60;27.50
1107;DHT22;540;49.448;8.612;2023-07-13T09:11:17;33.20;27.50
1107;DHT22;540;49.448;8.612;2023-07-13T09:13:54;33.30;26.90
1107;DHT22;540;49.448;8.612;2023-07-13T09:16:25;33.70;26.80
1107;DHT22;540;49.448;8.612;2023-07-13T09:18:58;34.00;26.40
1107;DHT22;540;49.448;8.612;2023-07-13T09:21:30;33.90;26.60
1107;DHT22;540;49.448;8.612;2023-07-13T09:24:15;32.80;27.10
1107;DHT22;540;49.448;8.612;2023-07-13T09:26:48;32.00;28.20
1107;DHT22;540;49.448;8.612;2023-07-13T09:29:22;31.70;28.90
1107;DHT22;540;49.448;8.612;2023-07-13T09:31:57;32.20;28.70
1107;DHT22;540;49.448;8.612;2023-07-13T09:34:28;32.30;28.00
1107;DHT22;540;49.448;8.612;2023-07-13T09:36:57;31.40;29.20
1107;DHT22;540;49.448;8.612;2023-07-13T09:39:27;30.70;30.50
1107;DHT22;540;49.448;8.612;2023-07-13T09:42:01;30.60;31.20
1107;DHT22;540;49.448;8.612;2023-07-13T09:44:35;29.80;32.00
1107;DHT22;540;49.448;8.612;2023-07-13T09:47:15;29.80;32.70
1107;DHT22;540;49.448;8.612;2023-07-13T09:49:44;29.50;33.20
1107;DHT22;540;49.448;8.612;2023-07-13T09:52:15;29.10;33.60
1107;DHT22;540;49.448;8.612;2023-07-13T09:54:45;28.70;34.40
1107;DHT22;540;49.448;8.612;2023-07-13T09:57:16;28.60;34.60
1107;DHT22;540;49.448;8.612;2023-07-13T09:59:46;28.50;34.70
1107;DHT22;540;49.448;8.612;2023-07-13T10:02:27;28.10;34.90
1107;DHT22;540;49.448;8.612;2023-07-13T10:04:57;28.20;35.40
1107;DHT22;540;49.448;8.612;2023-07-13T10:07:26;28.10;35.60
1107;DHT22;540;49.448;8.612;2023-07-13T10:09:57;27.50;36.10
1107;DHT22;540;49.448;8.612;2023-07-13T10:12:25;27.50;37.10
1107;DHT22;540;49.448;8.612;2023-07-13T10:14:56;27.30;37.40
1107;DHT22;540;49.448;8.612;2023-07-13T10:17:44;27.40;37.10
1107;DHT22;540;49.448;8.612;2023-07-13T10:20:12;28.30;36.70
1107;DHT22;540;49.448;8.612;2023-07-13T10:22:44;29.10;35.40
1107;DHT22;540;49.448;8.612;2023-07-13T10:25:21;29.60;34.00
1107;DHT22;540;49.448;8.612;2023-07-13T10:27:52;30.20;33.80
1107;DHT22;540;49.448;8.612;2023-07-13T10:30:23;29.50;33.30
1107;DHT22;540;49.448;8.612;2023-07-13T10:32:53;28.70;34.30
1107;DHT22;540;49.448;8.612;2023-07-13T10:35:22;28.40;34.90
1107;DHT22;540;49.448;8.612;2023-07-13T10:37:53;27.90;34.90
1107;DHT22;540;49.448;8.612;2023-07-13T10:40:27;27.80;35.90
1107;DHT22;540;49.448;8.612;2023-07-13T10:42:58;27.70;36.00
1107;DHT22;540;49.448;8.612;2023-07-13T10:45:30;27.70;36.10
1107;DHT22;540;49.448;8.612;2023-07-13T10:48:00;27.60;36.20
1107;DHT22;540;49.448;8.612;2023-07-13T10:50:30;27.60;36.30
1107;DHT22;540;49.448;8.612;2023-07-13T10:53:02;27.80;36.10
1107;DHT22;540;49.448;8.612;2023-07-13T10:55:35;27.80;35.50
1107;DHT22;540;49.448;8.612;2023-07-13T10:58:14;28.20;35.10
1107;DHT22;540;49.448;8.612;2023-07-13T11:00:51;28.30;34.80
1107;DHT22;540;49.448;8.612;2023-07-13T11:03:22;28.50;34.00
1107;DHT22;540;49.448;8.612;2023-07-13T11:06:05;28.30;32.50
1107;DHT22;540;49.448;8.612;2023-07-13T11:08:37;27.90;32.90
1107;DHT22;540;49.448;8.612;2023-07-13T11:11:34;28.30;32.30
1107;DHT22;540;49.448;8.612;2023-07-13T11:14:04;29.10;31.20
1107;DHT22;540;49.448;8.612;2023-07-13T11:16:44;29.80;30.00
1107;DHT22;540;49.448;8.612;2023-07-13T11:19:27;30.70;29.00
1107;DHT22;540;49.448;8.612;2023-07-13T11:22:09;30.60;27.90
1107;DHT22;540;49.448;8.612;2023-07-13T11:24:59;30.80;27.80
1107;DHT22;540;49.448;8.612;2023-07-13T11:27:41;30.20;28.00
1107;DHT22;540;49.448;8.612;2023-07-13T11:30:25;29.10;29.60
1107;DHT22;540;49.448;8.612;2023-07-13T11:33:13;28.80;30.00
1107;DHT22;540;49.448;8.612;2023-07-13T11:35:52;28.80;30.00
1107;DHT22;540;49.448;8.612;2023-07-13T11:38:22;28.90;30.00
1107;DHT22;540;49.448;8.612;2023-07-13T11:40:54;28.80;30.20
1107;DHT22;540;49.448;8.612;2023-07-13T11:43:22;28.80;30.00
1107;DHT22;540;49.448;8.612;2023-07-13T11:45:51;29.10;29.50
1107;DHT22;540;49.448;8.612;2023-07-13T11:48:30;29.10;29.50
1107;DHT22;540;49.448;8.612;2023-07-13T11:51:01;29.10;29.80
1107;DHT22;540;49.448;8.612;2023-07-13T11:53:37;29.30;29.40
1107;DHT22;540;49.448;8.612;2023-07-13T11:56:06;29.30;29.40
1107;DHT22;540;49.448;8.612;2023-07-13T11:58:35;29.40;29.40
1107;DHT22;540;49.448;8.612;2023-07-13T12:01:03;29.60;29.60
1107;DHT22;540;49.448;8.612;2023-07-13T12:03:34;30.10;29.30
1107;DHT22;540;49.448;8.612;2023-07-13T12:06:05;30.50;28.90
1107;DHT22;540;49.448;8.612;2023-07-13T12:08:38;30.20;28.60
1107;DHT22;540;49.448;8.612;2023-07-13T12:11:15;29.80;28.90
1107;DHT22;540;49.448;8.612;2023-07-13T12:13:44;29.60;29.10
1107;DHT22;540;49.448;8.612;2023-07-13T12:16:15;29.30;29.00
1107;DHT22;540;49.448;8.612;2023-07-13T12:18:45;29.30;29.10
1107;DHT22;540;49.448;8.612;2023-07-13T12:21:17;29.40;29.10
1107;DHT22;540;49.448;8.612;2023-07-13T12:23:48;29.60;29.60
1107;DHT22;540;49.448;8.612;2023-07-13T12:26:18;29.40;28.40
1107;DHT22;540;49.448;8.612;2023-07-13T12:28:49;29.20;28.60
1107;DHT22;540;49.448;8.612;2023-07-13T12:31:29;29.00;29.00
1107;DHT22;540;49.448;8.612;2023-07-13T12:34:02;29.10;29.30
1107;DHT22;540;49.448;8.612;2023-07-13T12:36:35;29.50;28.90
1107;DHT22;540;49.448;8.612;2023-07-13T12:39:12;30.00;27.80
1107;DHT22;540;49.448;8.612;2023-07-13T12:41:41;30.00;27.40
1107;DHT22;540;49.448;8.612;2023-07-13T12:44:12;29.30;27.90
1107;DHT22;540;49.448;8.612;2023-07-13T12:46:55;28.50;29.00
1107;DHT22;540;49.448;8.612;2023-07-13T12:49:27;28.40;29.70
1107;DHT22;540;49.448;8.612;2023-07-13T12:51:57;28.40;30.10
1107;DHT22;540;49.448;8.612;2023-07-13T12:54:26;28.60;30.70
1107;DHT22;540;49.448;8.612;2023-07-13T12:56:56;28.70;30.80
1107;DHT22;540;49.448;8.612;2023-07-13T12:59:30;28.70;30.70
1107;DHT22;540;49.448;8.612;2023-07-13T13:01:59;28.70;30.50
1107;DHT22;540;49.448;8.612;2023-07-13T13:04:31;28.60;30.50
1107;DHT22;540;49.448;8.612;2023-07-13T13:07:03;28.70;30.80
1107;DHT22;540;49.448;8.612;2023-07-13T13:09:31;28.60;30.70
1107;DHT22;540;49.448;8.612;2023-07-13T13:11:59;28.50;30.70
1107;DHT22;540;49.448;8.612;2023-07-13T13:14:27;28.40;31.00
1107;DHT22;540;49.448;8.612;2023-07-13T13:16:55;28.40;31.30
1107;DHT22;540;49.448;8.612;2023-07-13T13:19:27;28.90;30.80
1107;DHT22;540;49.448;8.612;2023-07-13T13:21:57;29.00;30.00
1107;DHT22;540;49.448;8.612;2023-07-13T13:24:27;28.80;30.00
1107;DHT22;540;49.448;8.612;2023-07-13T13:26:56;28.70;30.30
1107;DHT22;540;49.448;8.612;2023-07-13T13:29:25;28.90;30.40
1107;DHT22;540;49.448;8.612;2023-07-13T13:31:53;28.80;30.20
1107;DHT22;540;49.448;8.612;2023-07-13T13:34:23;28.80;30.10
1107;DHT22;540;49.448;8.612;2023-07-13T13:36:52;28.90;29.90
1107;DHT22;540;49.448;8.612;2023-07-13T13:39:30;28.70;29.80
1107;DHT22;540;49.448;8.612;2023-07-13T13:41:59;28.40;30.10
1107;DHT22;540;49.448;8.612;2023-07-13T13:44:27;28.30;30.60
1107;DHT22;540;49.448;8.612;2023-07-13T13:46:55;28.40;31.10
1107;DHT22;540;49.448;8.612;2023-07-13T13:49:26;28.40;31.20
1107;DHT22;540;49.448;8.612;2023-07-13T13:51:55;28.10;31.40
1107;DHT22;540;49.448;8.612;2023-07-13T13:54:24;28.10;31.20
1107;DHT22;540;49.448;8.612;2023-07-13T13:56:53;28.40;31.50
1107;DHT22;540;49.448;8.612;2023-07-13T13:59:22;28.80;30.90
1107;DHT22;540;49.448;8.612;2023-07-13T14:01:50;29.10;30.50
1107;DHT22;540;49.448;8.612;2023-07-13T14:04:21;29.20;30.70
1107;DHT22;540;49.448;8.612;2023-07-13T14:06:49;29.30;30.50
1107;DHT22;540;49.448;8.612;2023-07-13T14:09:18;29.40;30.00
1107;DHT22;540;49.448;8.612;2023-07-13T14:11:48;29.40;29.80
1107;DHT22;540;49.448;8.612;2023-07-13T14:14:22;29.60;29.30
1107;DHT22;540;49.448;8.612;2023-07-13T14:16:51;30.00;28.80
1107;DHT22;540;49.448;8.612;2023-07-13T14:19:21;29.90;28.80
1107;DHT22;540;49.448;8.612;2023-07-13T14:21:50;29.90;29.00
1107;DHT22;540;49.448;8.612;2023-07-13T14:24:20;29.90;29.20
1107;DHT22;540;49.448;8.612;2023-07-13T14:26:48;29.70;29.30
1107;DHT22;540;49.448;8.612;2023-07-13T14:29:19;29.80;29.50
1107;DHT22;540;49.448;8.612;2023-07-13T14:31:50;29.90;29.80
1107;DHT22;540;49.448;8.612;2023-07-13T14:34:19;30.00;29.80
1107;DHT22;540;49.448;8.612;2023-07-13T14:36:48;29.90;29.80
1107;DHT22;540;49.448;8.612;2023-07-13T14:39:18;29.90;29.80
1107;DHT22;540;49.448;8.612;2023-07-13T14:41:50;29.80;29.90
1107;DHT22;540;49.448;8.612;2023-07-13T14:44:24;29.60;29.70
1107;DHT22;540;49.448;8.612;2023-07-13T14:46:52;29.50;30.10
1107;DHT22;540;49.448;8.612;2023-07-13T14:49:24;29.20;30.40
1107;DHT22;540;49.448;8.612;2023-07-13T14:51:55;29.10;31.00
1107;DHT22;540;49.448;8.612;2023-07-13T14:54:24;29.10;31.50
1107;DHT22;540;49.448;8.612;2023-07-13T14:56:52;28.80;31.10
1107;DHT22;540;49.448;8.612;2023-07-13T14:59:21;28.90;31.10
1107;DHT22;540;49.448;8.612;2023-07-13T15:01:49;28.90;31.30
1107;DHT22;540;49.448;8.612;2023-07-13T15:04:17;29.00;31.20
1107;DHT22;540;49.448;8.612;2023-07-13T15:06:56;29.00;31.10
1107;DHT22;540;49.448;8.612;2023-07-13T15:09:26;29.10;31.30
1107;DHT22;540;49.448;8.612;2023-07-13T15:11:56;29.20;31.10
1107;DHT22;540;49.448;8.612;2023-07-13T15:14:26;29.30;31.00
1107;DHT22;540;49.448;8.612;2023-07-13T15:16:57;29.20;30.40
1107;DHT22;540;49.448;8.612;2023-07-13T15:19:26;29.20;30.50
1107;DHT22;540;49.448;8.612;2023-07-13T15:21:55;29.30;30.60
1107;DHT22;540;49.448;8.612;2023-07-13T15:24:24;29.10;30.50
1107;DHT22;540;49.448;8.612;2023-07-13T15:26:52;29.10;30.70
1107;DHT22;540;49.448;8.612;2023-07-13T15:29:20;28.80;30.80
1107;DHT22;540;49.448;8.612;2023-07-13T15:31:49;28.70;31.30
1107;DHT22;540;49.448;8.612;2023-07-13T15:34:21;28.60;30.90
1107;DHT22;540;49.448;8.612;2023-07-13T15:36:51;28.50;31.40
1107;DHT22;540;49.448;8.612;2023-07-13T15:39:19;28.40;31.70
1107;DHT22;540;49.448;8.612;2023-07-13T15:41:47;28.40;31.80
1107;DHT22;540;49.448;8.612;2023-07-13T15:44:24;28.40;31.60
1107;DHT22;540;49.448;8.612;2023-07-13T15:46:54;28.30;31.10
1107;DHT22;540;49.448;8.612;2023-07-13T15:49:23;28.00;31.40
1107;DHT22;540;49.448;8.612;2023-07-13T15:51:51;28.00;31.90
1107;DHT22;540;49.448;8.612;2023-07-13T15:54:19;27.90;31.50
1107;DHT22;540;49.448;8.612;2023-07-13T15:56:52;28.00;31.80
1107;DHT22;540;49.448;8.612;2023-07-13T15:59:20;28.30;31.90
1107;DHT22;540;49.448;8.612;2023-07-13T16:01:48;28.40;31.70
1107;DHT22;540;49.448;8.612;2023-07-13T16:04:18;28.60;31.60
1107;DHT22;540;49.448;8.612;2023-07-13T16:06:47;28.60;31.20
1107;DHT22;540;49.448;8.612;2023-07-13T16:09:19;28.60;30.60
1107;DHT22;540;49.448;8.612;2023-07-13T16:11:49;28.40;31.00
1107;DHT22;540;49.448;8.612;2023-07-13T16:14:17;28.40;31.30
1107;DHT22;540;49.448;8.612;2023-07-13T16:16:47;28.50;31.50
1107;DHT22;540;49.448;8.612;2023-07-13T16:19:18;28.40;31.60
1107;DHT22;540;49.448;8.612;2023-07-13T16:21:55;28.50;31.80
1107;DHT22;540;49.448;8.612;2023-07-13T16:24:24;28.50;31.80
1107;DHT22;540;49.448;8.612;2023-07-13T16:26:52;28.50;32.10
1107;DHT22;540;49.448;8.612;2023-07-13T16:29:25;28.40;31.80
1107;DHT22;540;49.448;8.612;2023-07-13T16:32:01;28.30;32.20
1107;DHT22;540;49.448;8.612;2023-07-13T16:34:32;28.10;32.00
1107;DHT22;540;49.448;8.612;2023-07-13T16:37:01;28.10;32.30